createdAt,value
2023-03-26T00:04:56.414Z,37.00
2023-03-26T00:09:59.850Z,36.90
2023-03-26T00:15:05.474Z,36.80
2023-03-26T00:20:09.849Z,37.10
2023-03-26T00:25:13.750Z,37.00
2023-03-26T00:30:18.534Z,37.00
2023-03-26T00:35:22.501Z,37.30
2023-03-26T00:40:26.005Z,37.10
2023-03-26T00:45:30.505Z,37.30
2023-03-26T00:50:33.575Z,37.70
2023-03-26T00:55:36.970Z,37.50
2023-03-26T01:00:48.430Z,37.70
2023-03-26T01:05:53.722Z,38.10
2023-03-26T01:11:05.168Z,37.80
2023-03-26T01:16:20.579Z,37.80
2023-03-26T01:21:28.751Z,38.20
2023-03-26T01:27:10.795Z,37.60
2023-03-26T01:32:38.895Z,38.10
2023-03-26T01:37:58.612Z,38.20
2023-03-26T01:43:10.233Z,38.50
2023-03-26T01:48:14.447Z,38.50
2023-03-26T01:53:17.637Z,37.90
2023-03-26T01:58:29.307Z,38.00
2023-03-26T02:03:35.441Z,38.70
2023-03-26T02:08:42.498Z,38.40
2023-03-26T02:13:47.534Z,38.70
2023-03-26T02:18:55.738Z,38.80
2023-03-26T02:24:03.221Z,38.60
2023-03-26T02:29:08.012Z,38.80
2023-03-26T02:34:11.332Z,38.70
2023-03-26T02:39:14.445Z,38.50
2023-03-26T02:44:18.932Z,38.40
2023-03-26T02:49:22.028Z,38.70
2023-03-26T02:54:25.294Z,38.60
2023-03-26T02:59:29.761Z,38.40
2023-03-26T03:04:32.942Z,38.80
2023-03-26T03:09:36.007Z,38.40
2023-03-26T03:14:40.868Z,38.40
2023-03-26T03:19:43.953Z,38.70
2023-03-26T03:24:47.077Z,38.40
2023-03-26T03:29:53.718Z,38.40
2023-03-26T03:34:56.767Z,38.60
2023-03-26T03:39:59.883Z,38.20
2023-03-26T03:45:06.040Z,38.20
2023-03-26T03:50:10.666Z,38.30
2023-03-26T03:55:14.122Z,38.20
2023-03-26T04:00:19.339Z,38.00
2023-03-26T04:05:23.596Z,38.20
2023-03-26T04:10:28.070Z,38.10
2023-03-26T04:15:32.506Z,38.20
2023-03-26T04:20:35.645Z,38.20
2023-03-26T04:25:39.478Z,38.10
2023-03-26T04:30:45.013Z,38.30
2023-03-26T04:35:48.774Z,38.50
2023-03-26T04:40:52.047Z,38.40
2023-03-26T04:45:56.742Z,38.50
2023-03-26T04:51:01.247Z,38.70
2023-03-26T04:56:10.356Z,38.60
2023-03-26T05:01:16.686Z,40.20
2023-03-26T05:06:19.898Z,39.90
2023-03-26T05:11:24.293Z,39.70
2023-03-26T05:16:30.206Z,39.70
2023-03-26T05:21:33.345Z,40.10
2023-03-26T05:26:36.929Z,39.80
2023-03-26T05:31:41.398Z,39.80
2023-03-26T05:36:44.669Z,40.20
2023-03-26T05:41:47.747Z,40.00
2023-03-26T05:46:52.279Z,40.00
2023-03-26T05:51:55.657Z,40.30
2023-03-26T05:56:59.075Z,39.20
2023-03-26T06:02:03.670Z,40.20
2023-03-26T06:07:10.086Z,40.80
2023-03-26T06:12:13.225Z,39.40
2023-03-26T06:17:17.992Z,39.30
2023-03-26T06:22:21.675Z,39.90
2023-03-26T06:27:24.824Z,39.70
2023-03-26T06:32:29.317Z,39.50
2023-03-26T06:37:32.387Z,39.80
2023-03-26T06:43:08.575Z,39.60
2023-03-26T06:48:00.188Z,39.80
2023-03-26T06:53:03.290Z,40.00
2023-03-26T06:58:06.443Z,39.60
2023-03-26T07:03:11.814Z,39.50
2023-03-26T07:08:15.073Z,39.80
2023-03-26T07:13:18.178Z,39.70
2023-03-26T07:18:22.675Z,39.70
2023-03-26T07:23:26.373Z,39.90
2023-03-26T07:28:36.262Z,39.80
2023-03-26T07:33:47.995Z,40.10
2023-03-26T07:39:06.451Z,40.20
2023-03-26T07:44:40.485Z,40.40
2023-03-26T07:49:45.627Z,40.50
2023-03-26T07:54:49.308Z,40.20
2023-03-26T07:59:56.719Z,40.00
2023-03-26T08:05:18.742Z,40.10
2023-03-26T08:10:27.346Z,40.40
2023-03-26T08:15:34.512Z,39.90
2023-03-26T08:20:47.867Z,39.70
2023-03-26T08:26:02.335Z,39.90
2023-03-26T08:31:06.135Z,39.90
2023-03-26T08:36:11.338Z,39.60
2023-03-26T08:41:42.685Z,40.00
2023-03-26T08:47:15.365Z,40.70
2023-03-26T08:52:44.762Z,40.80
2023-03-26T08:58:27.578Z,40.70
2023-03-26T09:04:04.576Z,40.40
2023-03-26T09:09:49.003Z,40.60
2023-03-26T09:15:21.087Z,40.70
2023-03-26T09:21:00.121Z,40.90
2023-03-26T09:26:27.947Z,41.10
2023-03-26T09:31:46.391Z,41.00
2023-03-26T09:36:57.273Z,41.20
2023-03-26T09:42:09.911Z,41.50
2023-03-26T09:47:51.532Z,41.40
2023-03-26T09:53:15.168Z,41.30
2023-03-26T09:58:42.129Z,41.30
2023-03-26T10:04:03.107Z,41.60
2023-03-26T10:09:27.217Z,42.00
2023-03-26T10:14:39.495Z,41.80
2023-03-26T10:19:58.019Z,41.80
2023-03-26T10:25:29.269Z,42.00
2023-03-26T10:30:56.656Z,41.40
2023-03-26T10:36:26.893Z,42.10
2023-03-26T10:41:39.880Z,41.70
2023-03-26T10:47:01.179Z,41.40
2023-03-26T10:52:08.019Z,41.60
2023-03-26T10:57:19.888Z,41.00
2023-03-26T11:02:30.814Z,41.20
2023-03-26T11:07:39.427Z,41.70
2023-03-26T11:12:47.687Z,41.30
2023-03-26T11:18:02.201Z,41.60
2023-03-26T11:23:20.810Z,42.20
2023-03-26T11:28:35.111Z,42.60
2023-03-26T11:33:45.363Z,42.70
2023-03-26T15:43:20.074Z,45.40
2023-03-26T15:48:44.803Z,44.30
2023-03-26T15:53:53.992Z,43.20
2023-03-26T15:59:07.668Z,42.10
2023-03-26T16:04:37.672Z,41.60
2023-03-26T16:09:56.893Z,40.90
2023-03-26T16:15:25.306Z,40.50
2023-03-26T16:20:32.655Z,40.00
2023-03-26T16:25:54.132Z,40.40
2023-03-26T16:31:38.680Z,40.40
2023-03-26T16:36:45.231Z,40.00
2023-03-26T16:42:05.637Z,40.30
2023-03-26T16:47:20.736Z,39.90
2023-03-26T16:52:33.769Z,39.80
2023-03-26T16:57:44.667Z,40.00
2023-03-26T17:02:59.913Z,40.00
2023-03-26T17:08:12.891Z,39.80
2023-03-26T17:13:24.906Z,39.90
2023-03-26T17:18:44.353Z,39.80
2023-03-26T17:24:02.897Z,39.60
2023-03-26T17:29:18.743Z,39.70
2023-03-26T17:35:02.162Z,39.40
2023-03-26T17:40:48.746Z,39.00
2023-03-26T17:46:03.292Z,39.20
2023-03-26T17:51:23.499Z,39.30
2023-03-26T17:56:32.197Z,39.10
2023-03-26T18:01:39.395Z,39.30
2023-03-26T18:06:54.764Z,39.50
2023-03-26T18:12:23.663Z,39.30
2023-03-26T18:17:27.277Z,39.40
2023-03-26T18:22:31.925Z,39.60
2023-03-26T18:27:39.869Z,39.70
2023-03-26T18:32:52.451Z,40.00
2023-03-26T18:38:00.100Z,40.10
2023-03-26T18:43:04.738Z,39.90
2023-03-26T18:48:13.359Z,39.70
2023-03-26T18:53:20.832Z,40.00
2023-03-26T18:58:30.723Z,40.40
2023-03-26T19:03:42.766Z,41.20
2023-03-26T19:08:47.964Z,40.90
2023-03-26T19:14:06.801Z,41.00
2023-03-26T19:19:10.554Z,41.50
2023-03-26T19:24:16.378Z,41.30
2023-03-26T19:29:26.084Z,41.20
2023-03-26T19:34:34.895Z,41.50
2023-03-26T19:39:42.634Z,41.00
2023-03-26T19:44:47.325Z,41.10
2023-03-26T19:49:54.090Z,41.10
2023-03-26T19:55:01.918Z,41.60
2023-03-26T20:00:13.705Z,42.30
2023-03-26T20:05:23.031Z,42.30
2023-03-26T20:10:26.337Z,42.40
2023-03-26T20:15:34.650Z,41.90
2023-03-26T20:20:37.835Z,42.50
2023-03-26T20:25:49.729Z,42.00
2023-03-26T20:30:55.494Z,42.80
2023-03-26T20:35:59.509Z,42.40
2023-03-26T20:41:03.131Z,42.10
2023-03-26T20:46:08.013Z,41.90
2023-03-26T20:51:13.917Z,41.90
2023-03-26T20:56:18.891Z,42.10
2023-03-26T21:01:23.469Z,41.90
2023-03-26T21:06:26.796Z,41.90
2023-03-26T21:11:41.008Z,41.50
2023-03-26T21:16:46.409Z,42.00
2023-03-26T21:21:59.060Z,41.70
2023-03-26T21:27:09.732Z,41.80
2023-03-26T21:32:14.816Z,41.80
2023-03-26T21:37:19.139Z,41.40
2023-03-26T21:42:26.863Z,41.20
2023-03-26T21:47:32.289Z,41.30
2023-03-26T21:52:37.236Z,41.50
2023-03-26T21:58:00.909Z,41.40
2023-03-26T22:03:15.197Z,41.80
2023-03-26T22:08:25.462Z,42.00
2023-03-26T22:13:28.630Z,42.10
2023-03-26T22:18:33.628Z,41.50
2023-03-26T22:23:38.222Z,41.80
2023-03-26T22:28:41.574Z,41.60
2023-03-26T22:33:46.079Z,41.80
2023-03-26T22:38:49.290Z,42.00
2023-03-26T22:43:54.913Z,41.80
2023-03-26T22:49:00.506Z,42.00
2023-03-26T22:54:03.904Z,42.30
2023-03-26T22:59:07.449Z,42.00
2023-03-26T23:04:12.235Z,42.00
2023-03-26T23:09:34.150Z,42.30
2023-03-26T23:14:37.420Z,42.10
2023-03-26T23:19:43.317Z,42.20
2023-03-26T23:24:46.453Z,42.40
2023-03-26T23:29:49.558Z,42.00
2023-03-26T23:34:55.893Z,42.00
2023-03-26T23:40:00.499Z,42.30
2023-03-26T23:45:03.718Z,43.00
2023-03-26T23:50:09.787Z,42.00
2023-03-26T23:55:13.051Z,42.20
